createdAt,value
2023-01-29T00:00:11.950Z,2.16
2023-01-29T00:02:43.368Z,2.02
2023-01-29T00:05:27.062Z,2.24
2023-01-29T00:07:57.099Z,2.41
2023-01-29T00:10:25.789Z,2.31
2023-01-29T00:12:53.964Z,2.37
2023-01-29T00:15:22.261Z,2.37
2023-01-29T00:17:50.689Z,2.41
2023-01-29T00:20:20.362Z,2.45
2023-01-29T00:22:48.851Z,2.55
2023-01-29T00:25:17.399Z,2.44
2023-01-29T00:27:48.033Z,2.44
2023-01-29T00:30:19.791Z,2.31
2023-01-29T00:32:51.815Z,2.50
2023-01-29T00:35:21.378Z,2.39
2023-01-29T00:37:52.363Z,2.36
2023-01-29T00:40:20.482Z,2.40
2023-01-29T00:43:05.797Z,2.54
2023-01-29T00:45:33.917Z,2.60
2023-01-29T00:48:01.871Z,2.51
2023-01-29T00:50:31.491Z,2.29
2023-01-29T00:52:59.643Z,2.37
2023-01-29T00:55:27.597Z,2.31
2023-01-29T00:57:55.694Z,2.13
2023-01-29T01:00:26.027Z,1.82
2023-01-29T01:03:07.912Z,1.71
2023-01-29T01:05:39.104Z,2.12
2023-01-29T01:08:28.712Z,2.06
2023-01-29T01:11:00.107Z,1.89
2023-01-29T01:13:28.084Z,1.82
2023-01-29T01:15:56.121Z,1.60
2023-01-29T01:18:24.361Z,1.67
2023-01-29T01:20:58.920Z,1.90
2023-01-29T01:23:28.036Z,2.14
2023-01-29T01:25:55.983Z,2.33
2023-01-29T01:28:24.052Z,2.26
2023-01-29T01:30:52.021Z,2.36
2023-01-29T01:33:20.447Z,2.16
2023-01-29T01:35:48.444Z,2.27
2023-01-29T01:38:17.737Z,1.90
2023-01-29T01:40:47.189Z,2.00
2023-01-29T01:43:16.168Z,2.23
2023-01-29T01:45:46.723Z,2.15
2023-01-29T01:48:20.568Z,2.16
2023-01-29T01:50:54.707Z,2.12
2023-01-29T01:53:27.678Z,2.12
2023-01-29T01:55:59.931Z,1.88
2023-01-29T01:58:32.937Z,1.75
2023-01-29T02:01:01.415Z,1.90
2023-01-29T02:03:49.976Z,1.90
2023-01-29T02:06:35.718Z,2.10
2023-01-29T02:09:28.450Z,1.97
2023-01-29T02:11:56.560Z,2.10
2023-01-29T02:14:25.339Z,1.72
2023-01-29T02:16:53.370Z,1.48
2023-01-29T02:19:29.450Z,1.93
2023-01-29T02:22:17.033Z,1.90
2023-01-29T02:25:10.417Z,1.75
2023-01-29T02:28:07.651Z,1.91
2023-01-29T02:30:39.329Z,2.04
2023-01-29T02:33:21.352Z,2.07
2023-01-29T02:36:00.406Z,2.15
2023-01-29T02:38:35.554Z,2.14
2023-01-29T02:41:08.092Z,2.11
2023-01-29T02:43:47.304Z,2.21
2023-01-29T02:46:23.889Z,2.19
2023-01-29T02:48:58.276Z,2.30
2023-01-29T02:51:35.387Z,2.23
2023-01-29T02:54:08.488Z,2.33
2023-01-29T02:56:40.757Z,2.01
2023-01-29T02:59:15.378Z,2.12
2023-01-29T03:01:49.287Z,2.17
2023-01-29T03:04:23.708Z,2.08
2023-01-29T03:06:58.386Z,2.08
2023-01-29T03:09:31.310Z,2.12
2023-01-29T03:12:19.832Z,2.17
2023-01-29T03:15:10.300Z,2.27
2023-01-29T03:17:43.264Z,2.26
2023-01-29T03:20:17.430Z,2.26
2023-01-29T03:22:51.502Z,2.02
2023-01-29T03:25:39.119Z,2.08
2023-01-29T03:28:26.444Z,1.79
2023-01-29T03:31:15.463Z,1.46
2023-01-29T03:33:52.165Z,1.57
2023-01-29T03:36:23.998Z,1.79
2023-01-29T03:38:52.125Z,1.97
2023-01-29T03:41:29.965Z,2.00
2023-01-29T03:44:11.166Z,1.92
2023-01-29T03:46:47.898Z,1.70
2023-01-29T03:49:24.511Z,1.84
2023-01-29T03:51:59.391Z,1.80
2023-01-29T03:54:41.861Z,1.66
2023-01-29T03:57:17.153Z,1.42
2023-01-29T03:59:54.678Z,0.95
2023-01-29T04:02:50.346Z,1.28
2023-01-29T04:05:22.158Z,1.06
2023-01-29T04:08:09.889Z,1.41
2023-01-29T04:10:40.448Z,1.70
2023-01-29T04:13:12.318Z,1.77
2023-01-29T04:15:47.450Z,1.61
2023-01-29T04:18:17.053Z,1.72
2023-01-29T04:21:07.204Z,1.58
2023-01-29T04:23:35.538Z,1.53
2023-01-29T04:26:21.713Z,1.45
2023-01-29T04:29:03.570Z,1.16
2023-01-29T04:31:38.615Z,1.27
2023-01-29T04:34:20.727Z,1.45
2023-01-29T04:37:02.547Z,1.62
2023-01-29T04:39:37.577Z,1.75
2023-01-29T04:42:13.470Z,1.77
2023-01-29T04:44:49.842Z,1.77
2023-01-29T04:47:25.837Z,1.59
2023-01-29T04:50:09.791Z,1.42
2023-01-29T04:52:49.072Z,1.33
2023-01-29T04:55:26.580Z,1.18
2023-01-29T04:58:01.905Z,0.83
2023-01-29T05:00:34.665Z,0.47
2023-01-29T05:03:03.846Z,0.41
2023-01-29T05:05:33.857Z,0.47
2023-01-29T05:08:01.665Z,0.44
2023-01-29T05:10:30.447Z,0.53
2023-01-29T05:13:02.389Z,0.66
2023-01-29T05:15:38.177Z,0.62
2023-01-29T05:18:08.787Z,1.05
2023-01-29T05:20:40.320Z,1.38
2023-01-29T05:23:11.787Z,1.57
2023-01-29T05:25:40.285Z,1.56
2023-01-29T05:28:08.399Z,1.56
2023-01-29T05:30:38.172Z,1.48
2023-01-29T05:33:12.501Z,1.49
2023-01-29T05:35:42.080Z,1.02
2023-01-29T05:38:09.986Z,0.97
2023-01-29T05:40:38.168Z,1.26
2023-01-29T05:43:06.604Z,1.52
2023-01-29T05:45:34.618Z,1.66
2023-01-29T05:48:02.460Z,1.70
2023-01-29T05:50:30.408Z,1.77
2023-01-29T05:53:01.425Z,1.75
2023-01-29T05:55:30.482Z,1.61
2023-01-29T05:57:58.332Z,1.40
2023-01-29T06:00:26.170Z,1.49
2023-01-29T06:02:54.271Z,1.53
2023-01-29T06:05:22.081Z,1.51
2023-01-29T06:07:49.980Z,1.30
2023-01-29T06:10:19.949Z,1.52
2023-01-29T06:12:48.534Z,1.58
2023-01-29T06:15:16.634Z,1.70
2023-01-29T06:17:44.434Z,1.54
2023-01-29T06:20:13.214Z,1.57
2023-01-29T06:22:41.012Z,1.55
2023-01-29T06:25:09.985Z,1.54
2023-01-29T06:27:39.119Z,1.27
2023-01-29T06:30:08.020Z,1.51
2023-01-29T06:32:36.100Z,1.60
2023-01-29T06:35:04.279Z,1.55
2023-01-29T06:37:32.151Z,1.50
2023-01-29T06:40:00.057Z,1.47
2023-01-29T06:42:28.208Z,1.52
2023-01-29T06:44:57.686Z,1.23
2023-01-29T06:47:26.114Z,1.39
2023-01-29T06:49:53.955Z,1.48
2023-01-29T06:52:21.791Z,1.62
2023-01-29T06:54:52.842Z,1.51
2023-01-29T06:57:20.742Z,1.21
2023-01-29T06:59:48.573Z,0.99
2023-01-29T07:02:17.952Z,0.80
2023-01-29T07:04:45.774Z,0.83
2023-01-29T07:07:15.978Z,1.02
2023-01-29T07:09:44.303Z,1.38
2023-01-29T07:12:12.417Z,1.54
2023-01-29T07:14:40.286Z,1.51
2023-01-29T07:17:08.151Z,1.56
2023-01-29T07:19:37.366Z,1.62
2023-01-29T07:22:07.837Z,1.71
2023-01-29T07:24:35.936Z,1.73
2023-01-29T07:27:04.286Z,1.67
2023-01-29T07:29:32.760Z,1.81
2023-01-29T07:32:01.306Z,1.93
2023-01-29T07:34:29.919Z,1.30
2023-01-29T07:36:59.333Z,1.18
2023-01-29T07:39:27.209Z,1.53
2023-01-29T07:42:00.903Z,1.53
2023-01-29T07:44:38.567Z,1.14
2023-01-29T07:47:06.844Z,1.14
2023-01-29T07:49:34.771Z,1.16
2023-01-29T07:52:04.285Z,1.29
2023-01-29T07:54:32.450Z,1.30
2023-01-29T07:57:00.416Z,1.13
2023-01-29T07:59:28.193Z,1.49
2023-01-29T08:01:56.077Z,1.60
2023-01-29T08:04:23.966Z,1.74
2023-01-29T08:06:51.839Z,1.89
2023-01-29T08:09:21.044Z,1.48
2023-01-29T08:11:49.058Z,1.39
2023-01-29T08:14:16.903Z,1.65
2023-01-29T08:16:44.776Z,1.65
2023-01-29T08:19:12.647Z,1.21
2023-01-29T08:21:40.494Z,1.03
2023-01-29T08:24:08.349Z,0.95
2023-01-29T08:26:37.662Z,1.20
2023-01-29T08:29:05.763Z,1.57
2023-01-29T08:31:33.673Z,1.59
2023-01-29T08:34:01.554Z,1.58
2023-01-29T08:36:29.513Z,1.16
2023-01-29T08:38:57.398Z,0.92
2023-01-29T08:41:25.235Z,0.86
2023-01-29T08:43:54.452Z,0.72
2023-01-29T08:46:22.356Z,0.85
2023-01-29T08:48:50.308Z,0.91
2023-01-29T08:51:18.583Z,1.04
2023-01-29T08:53:46.453Z,1.21
2023-01-29T08:56:16.340Z,1.20
2023-01-29T08:58:44.584Z,1.19
2023-01-29T09:01:15.417Z,1.19
2023-01-29T09:03:44.507Z,1.23
2023-01-29T09:06:14.389Z,1.71
2023-01-29T09:08:42.424Z,2.17
2023-01-29T09:11:10.644Z,1.99
2023-01-29T09:13:38.799Z,2.22
2023-01-29T09:16:11.424Z,2.13
2023-01-29T09:18:40.680Z,2.23
2023-01-29T09:21:08.798Z,2.23
2023-01-29T09:23:36.747Z,2.03
2023-01-29T09:26:05.118Z,1.85
2023-01-29T09:28:32.949Z,1.76
2023-01-29T09:31:02.364Z,1.84
2023-01-29T09:33:30.990Z,1.99
2023-01-29T09:36:00.376Z,2.05
2023-01-29T09:38:28.581Z,2.04
2023-01-29T09:41:05.196Z,2.47
2023-01-29T09:43:43.648Z,2.90
2023-01-29T09:46:19.437Z,3.09
2023-01-29T09:48:49.401Z,3.38
2023-01-29T09:51:28.568Z,3.30
2023-01-29T09:54:04.723Z,2.78
2023-01-29T09:56:33.052Z,3.20
2023-01-29T09:59:01.985Z,3.53
2023-01-29T10:01:37.985Z,3.55
2023-01-29T10:04:28.600Z,3.83
2023-01-29T10:07:16.716Z,3.89
2023-01-29T10:10:07.945Z,3.65
2023-01-29T10:12:51.328Z,4.24
2023-01-29T10:15:33.353Z,4.19
2023-01-29T10:18:20.772Z,3.39
2023-01-29T10:20:59.539Z,3.66
2023-01-29T10:23:34.649Z,3.88
2023-01-29T10:26:03.418Z,3.89
2023-01-29T10:28:39.335Z,3.46
2023-01-29T10:31:11.231Z,3.96
2023-01-29T10:33:49.196Z,3.66
2023-01-29T10:36:35.413Z,2.76
2023-01-29T10:39:04.861Z,2.43
2023-01-29T10:41:53.111Z,2.75
2023-01-29T10:44:32.636Z,3.31
2023-01-29T10:47:30.885Z,2.93
2023-01-29T10:50:19.572Z,3.67
2023-01-29T10:53:13.417Z,3.42
2023-01-29T10:55:53.768Z,4.02
2023-01-29T10:58:32.094Z,3.99
2023-01-29T11:01:00.234Z,3.30
2023-01-29T11:03:30.119Z,3.71
2023-01-29T11:06:10.151Z,3.28
2023-01-29T11:08:42.023Z,3.53
2023-01-29T11:11:15.481Z,3.42
2023-01-29T11:13:49.203Z,2.79
2023-01-29T11:16:19.436Z,2.32
2023-01-29T11:18:53.573Z,3.07
2023-01-29T11:21:21.815Z,3.37
2023-01-29T11:23:49.807Z,3.15
2023-01-29T11:26:22.351Z,3.35
2023-01-29T11:28:52.531Z,3.43
2023-01-29T11:31:24.034Z,3.45
2023-01-29T11:33:54.550Z,2.56
2023-01-29T11:36:32.832Z,2.93
2023-01-29T11:39:21.685Z,3.49
2023-01-29T11:41:54.727Z,4.03
2023-01-29T11:44:28.895Z,4.31
2023-01-29T11:46:58.543Z,4.02
2023-01-29T11:49:33.536Z,4.22
2023-01-29T11:52:04.804Z,4.03
2023-01-29T11:54:37.871Z,3.40
2023-01-29T11:57:20.561Z,3.82
2023-01-29T11:59:52.100Z,4.06
2023-01-29T12:02:28.089Z,3.98
2023-01-29T12:04:58.998Z,4.28
2023-01-29T12:07:27.288Z,4.51
2023-01-29T12:09:57.293Z,4.39
2023-01-29T12:12:33.175Z,4.71
2023-01-29T12:15:24.924Z,4.67
2023-01-29T12:18:04.458Z,4.84
2023-01-29T12:20:40.429Z,4.63
2023-01-29T12:23:26.493Z,4.80
2023-01-29T12:26:02.852Z,5.06
2023-01-29T12:28:43.746Z,5.61
2023-01-29T12:31:26.280Z,5.61
2023-01-29T12:34:00.113Z,5.49
2023-01-29T12:36:32.578Z,5.30
2023-01-29T12:39:00.663Z,5.32
2023-01-29T12:41:38.133Z,5.40
2023-01-29T12:44:13.109Z,4.71
2023-01-29T12:46:49.007Z,3.31
2023-01-29T12:49:21.234Z,4.42
2023-01-29T12:51:56.770Z,4.82
2023-01-29T12:54:32.274Z,5.04
2023-01-29T12:57:09.934Z,5.25
2023-01-29T12:59:44.211Z,4.37
2023-01-29T13:02:24.741Z,5.21
2023-01-29T13:05:00.297Z,5.65
2023-01-29T13:07:33.195Z,5.61
2023-01-29T13:10:09.179Z,6.08
2023-01-29T13:12:39.980Z,6.12
2023-01-29T13:15:22.581Z,5.71
2023-01-29T13:17:55.697Z,6.02
2023-01-29T13:20:29.995Z,5.79
2023-01-29T13:23:03.320Z,6.11
2023-01-29T13:25:32.420Z,5.44
2023-01-29T13:28:00.435Z,5.50
2023-01-29T13:30:32.075Z,6.14
2023-01-29T13:33:10.501Z,6.36
2023-01-29T13:35:44.112Z,5.28
2023-01-29T13:38:26.491Z,5.71
2023-01-29T13:40:57.724Z,5.47
2023-01-29T13:43:26.096Z,4.96
2023-01-29T13:45:56.034Z,4.98
2023-01-29T13:48:28.325Z,4.37
2023-01-29T13:50:58.350Z,4.22
2023-01-29T13:53:28.430Z,3.64
2023-01-29T13:55:56.460Z,4.09
2023-01-29T13:58:54.948Z,3.87
2023-01-29T14:02:02.629Z,4.13
2023-01-29T14:04:34.033Z,4.19
2023-01-29T14:07:04.012Z,4.33
2023-01-29T14:10:03.624Z,3.84
2023-01-29T14:12:45.484Z,3.63
2023-01-29T14:15:28.877Z,3.34
2023-01-29T14:18:04.523Z,4.14
2023-01-29T14:20:45.523Z,4.57
2023-01-29T14:23:25.065Z,4.61
2023-01-29T14:25:53.233Z,4.54
2023-01-29T14:28:25.864Z,4.66
2023-01-29T14:30:55.016Z,4.61
2023-01-29T14:33:29.788Z,4.55
2023-01-29T14:36:04.446Z,4.83
2023-01-29T14:38:34.443Z,4.49
2023-01-29T14:41:10.661Z,4.70
2023-01-29T14:43:38.550Z,4.78
2023-01-29T14:46:42.871Z,4.86
2023-01-29T14:49:10.816Z,4.84
2023-01-29T14:51:45.324Z,5.14
2023-01-29T14:54:26.342Z,5.11
2023-01-29T14:57:00.806Z,4.73
2023-01-29T14:59:35.104Z,4.92
2023-01-29T15:02:13.304Z,5.16
2023-01-29T15:04:47.540Z,4.92
2023-01-29T15:07:29.479Z,4.87
2023-01-29T15:10:21.527Z,4.68
2023-01-29T15:12:53.892Z,4.52
2023-01-29T15:15:30.226Z,4.71
2023-01-29T15:18:02.933Z,4.74
2023-01-29T15:20:33.513Z,4.82
2023-01-29T15:23:04.152Z,4.69
2023-01-29T15:25:37.011Z,4.71
2023-01-29T15:28:08.576Z,4.43
2023-01-29T15:30:37.809Z,4.26
2023-01-29T15:33:10.694Z,4.43
2023-01-29T15:35:40.678Z,4.42
2023-01-29T15:38:17.438Z,4.14
2023-01-29T15:40:53.422Z,4.01
2023-01-29T15:43:24.931Z,4.03
2023-01-29T15:45:54.778Z,3.65
2023-01-29T15:48:31.984Z,3.84
2023-01-29T15:51:01.234Z,3.77
2023-01-29T15:53:36.037Z,3.59
2023-01-29T15:56:10.131Z,3.74
2023-01-29T15:58:38.600Z,3.65
2023-01-29T16:01:07.452Z,3.82
2023-01-29T16:03:37.667Z,3.59
2023-01-29T16:06:08.752Z,3.70
2023-01-29T16:08:41.140Z,3.64
2023-01-29T16:11:16.407Z,3.47
2023-01-29T16:13:49.070Z,3.64
2023-01-29T16:16:26.209Z,3.60
2023-01-29T16:19:00.348Z,3.54
2023-01-29T16:21:33.603Z,3.55
2023-01-29T16:24:09.579Z,3.55
2023-01-29T16:26:43.243Z,3.43
2023-01-29T16:29:14.017Z,3.27
2023-01-29T16:31:44.175Z,3.16
2023-01-29T16:34:20.677Z,2.84
2023-01-29T16:36:52.848Z,2.84
2023-01-29T16:39:25.999Z,2.61
2023-01-29T16:42:22.284Z,2.59
2023-01-29T16:44:56.142Z,2.68
2023-01-29T16:47:34.437Z,2.80
2023-01-29T16:50:20.820Z,2.77
2023-01-29T16:52:57.866Z,2.65
2023-01-29T16:55:27.567Z,2.54
2023-01-29T16:57:57.404Z,2.44
2023-01-29T17:00:27.464Z,2.49
2023-01-29T17:03:00.742Z,2.55
2023-01-29T17:05:31.146Z,2.39
2023-01-29T17:08:00.451Z,2.30
2023-01-29T17:10:31.662Z,2.26
2023-01-29T17:13:06.315Z,2.22
2023-01-29T17:15:37.643Z,2.38
2023-01-29T17:18:17.197Z,2.42
2023-01-29T17:20:45.243Z,2.47
2023-01-29T17:23:15.673Z,2.51
2023-01-29T17:25:46.033Z,2.22
2023-01-29T17:28:14.839Z,2.28
2023-01-29T17:30:44.897Z,2.13
2023-01-29T17:33:22.649Z,1.93
2023-01-29T17:35:51.421Z,1.75
2023-01-29T17:38:26.499Z,1.98
2023-01-29T17:40:59.344Z,1.99
2023-01-29T17:43:27.422Z,2.01
2023-01-29T17:45:55.608Z,1.98
2023-01-29T17:48:25.469Z,2.05
2023-01-29T17:50:56.464Z,2.02
2023-01-29T17:53:43.345Z,2.01
2023-01-29T17:56:18.269Z,2.02
2023-01-29T17:58:46.961Z,1.98
2023-01-29T18:01:15.020Z,1.98
2023-01-29T18:03:43.924Z,1.94
2023-01-29T18:06:26.799Z,1.91
2023-01-29T18:09:03.922Z,1.76
2023-01-29T18:11:35.815Z,1.69
2023-01-29T18:14:14.209Z,1.71
2023-01-29T18:16:45.282Z,1.67
2023-01-29T18:19:21.691Z,1.71
2023-01-29T18:21:50.231Z,1.67
2023-01-29T18:24:21.157Z,1.58
2023-01-29T18:26:51.196Z,1.63
2023-01-29T18:29:19.679Z,1.66
2023-01-29T18:31:50.044Z,1.71
2023-01-29T18:34:18.387Z,1.67
2023-01-29T18:36:47.830Z,1.77
2023-01-29T18:39:16.505Z,1.77
2023-01-29T18:41:44.491Z,1.74
2023-01-29T18:44:14.042Z,1.73
2023-01-29T18:46:42.829Z,1.67
2023-01-29T18:49:10.772Z,1.65
2023-01-29T18:51:38.797Z,1.66
2023-01-29T18:54:07.317Z,1.63
2023-01-29T18:56:35.351Z,1.61
2023-01-29T18:59:04.924Z,1.60
2023-01-29T19:01:35.906Z,1.57
2023-01-29T19:04:03.834Z,1.50
2023-01-29T19:06:36.133Z,1.43
2023-01-29T19:09:06.548Z,1.38
2023-01-29T19:11:34.557Z,1.42
2023-01-29T19:14:02.684Z,1.44
2023-01-29T19:16:30.886Z,1.46
2023-01-29T19:19:00.174Z,1.41
2023-01-29T19:21:28.505Z,1.36
2023-01-29T19:23:56.832Z,1.26
2023-01-29T19:26:25.131Z,1.26
2023-01-29T19:28:53.167Z,1.28
2023-01-29T19:31:21.685Z,1.31
2023-01-29T19:33:49.570Z,1.35
2023-01-29T19:36:19.155Z,1.41
2023-01-29T19:38:49.358Z,1.41
2023-01-29T19:41:17.413Z,1.36
2023-01-29T19:43:46.422Z,1.33
2023-01-29T19:46:14.518Z,1.32
2023-01-29T19:48:43.136Z,1.22
2023-01-29T19:51:13.107Z,1.20
2023-01-29T19:53:45.046Z,1.15
2023-01-29T19:56:15.052Z,1.12
2023-01-29T19:58:44.827Z,1.08
2023-01-29T20:01:16.079Z,1.06
2023-01-29T20:03:46.460Z,1.02
2023-01-29T20:06:16.965Z,1.03
2023-01-29T20:08:47.056Z,0.99
2023-01-29T20:11:15.776Z,0.70
2023-01-29T20:13:43.758Z,0.77
2023-01-29T20:16:11.911Z,0.84
2023-01-29T20:18:40.357Z,0.91
2023-01-29T20:21:12.242Z,0.98
2023-01-29T20:23:40.925Z,0.92
2023-01-29T20:26:13.696Z,0.84
2023-01-29T20:28:42.454Z,0.88
2023-01-29T20:31:11.207Z,0.87
2023-01-29T20:33:39.816Z,0.83
2023-01-29T20:36:10.192Z,0.63
2023-01-29T20:38:38.855Z,0.41
2023-01-29T20:41:08.802Z,0.44
2023-01-29T20:43:38.167Z,0.65
2023-01-29T20:46:06.712Z,0.78
2023-01-29T20:48:35.221Z,0.74
2023-01-29T20:51:09.278Z,0.75
2023-01-29T20:53:38.497Z,0.67
2023-01-29T20:56:07.455Z,0.64
2023-01-29T20:58:38.210Z,0.63
2023-01-29T21:01:10.510Z,0.65
2023-01-29T21:03:39.907Z,0.67
2023-01-29T21:06:09.509Z,0.57
2023-01-29T21:08:38.464Z,0.59
2023-01-29T21:11:07.840Z,0.61
2023-01-29T21:13:38.628Z,0.39
2023-01-29T21:16:07.173Z,0.41
2023-01-29T21:18:40.098Z,0.46
2023-01-29T21:21:08.074Z,0.19
2023-01-29T21:23:36.049Z,-0.17
2023-01-29T21:26:04.925Z,-0.29
2023-01-29T21:28:33.338Z,-0.18
2023-01-29T21:31:05.815Z,-0.20
2023-01-29T21:33:35.034Z,-0.43
2023-01-29T21:36:05.585Z,-0.13
2023-01-29T21:38:33.921Z,0.10
2023-01-29T21:41:02.285Z,0.05
2023-01-29T21:43:29.669Z,0.07
2023-01-29T21:46:03.900Z,0.14
2023-01-29T21:48:32.316Z,0.25
2023-01-29T21:51:04.249Z,0.17
2023-01-29T21:53:32.334Z,0.13
2023-01-29T21:56:01.657Z,0.12
2023-01-29T21:58:30.456Z,0.11
2023-01-29T22:01:11.408Z,0.10
2023-01-29T22:03:47.484Z,0.15
2023-01-29T22:06:17.083Z,0.17
2023-01-29T22:08:45.091Z,0.13
2023-01-29T22:11:13.152Z,0.12
2023-01-29T22:13:43.291Z,0.10
2023-01-29T22:16:11.284Z,-0.05
2023-01-29T22:18:39.233Z,-0.17
2023-01-29T22:21:07.100Z,-0.20
2023-01-29T22:23:36.372Z,-0.22
2023-01-29T22:26:05.227Z,-0.10
2023-01-29T22:28:33.173Z,-0.05
2023-01-29T22:31:04.575Z,-0.32
2023-01-29T22:33:33.191Z,-0.41
2023-01-29T22:36:01.230Z,-0.27
2023-01-29T22:38:29.552Z,-0.23
2023-01-29T22:41:00.842Z,-0.17
2023-01-29T22:43:29.230Z,-0.14
2023-01-29T22:45:58.231Z,-0.11
2023-01-29T22:48:26.873Z,-0.17
2023-01-29T22:51:09.873Z,-0.32
2023-01-29T22:53:39.232Z,-0.33
2023-01-29T22:56:09.425Z,-0.22
2023-01-29T22:58:37.585Z,-0.29
2023-01-29T23:01:06.035Z,-0.30
2023-01-29T23:03:34.176Z,-0.40
2023-01-29T23:06:02.235Z,-0.33
2023-01-29T23:08:30.106Z,-0.38
2023-01-29T23:11:14.499Z,-0.39
2023-01-29T23:13:46.032Z,-0.50
2023-01-29T23:16:14.754Z,-0.60
2023-01-29T23:18:45.834Z,-0.50
2023-01-29T23:21:13.864Z,-0.36
2023-01-29T23:23:44.055Z,-0.34
2023-01-29T23:26:30.710Z,-0.31
2023-01-29T23:29:01.202Z,-0.33
2023-01-29T23:31:29.246Z,-0.54
2023-01-29T23:33:57.250Z,-0.68
2023-01-29T23:36:25.177Z,-0.72
2023-01-29T23:38:53.175Z,-0.53
2023-01-29T23:41:21.337Z,-0.61
2023-01-29T23:43:49.948Z,-0.50
2023-01-29T23:46:19.340Z,-0.41
2023-01-29T23:48:47.247Z,-0.37
2023-01-29T23:51:15.235Z,-0.73
2023-01-29T23:53:43.303Z,-0.78
2023-01-29T23:56:12.646Z,-0.81
2023-01-29T23:58:40.689Z,-0.68
